Sunday, October 22, 2017, 5:05 PM EDT
Back to Local

KFZY, Fulton Oswego County Airport

Location: Fulton, NY, United States Lat: 43.35
Local Time: 5:05 PM EDT (21:05 GMT) Lon: -76.383
Time Zone: US/Eastern Elev: 475 ft

Show me the last for .
Show Decoded

2017-10-22 15:54 METAR KFZY 221954Z AUTO VRB03KT 10SM CLR 23/12 A3023 RMK AO2 SLP237 T02330117 $
                 =
2017-10-22 14:54 METAR KFZY 221854Z AUTO VRB05KT 10SM CLR 24/11 A3024 RMK AO2 SLP240 T02440106 $
                 =
2017-10-22 13:54 METAR KFZY 221754Z AUTO 18007KT 10SM CLR 24/10 A3027 RMK AO2 SLP249 T02390100
                 10239 20106 58010 $ =
2017-10-22 12:54 METAR KFZY 221654Z AUTO 18005KT 10SM CLR 23/09 A3028 RMK AO2 SLP253 T02280094 $
                 =
2017-10-22 11:54 METAR KFZY 221554Z AUTO 20005KT 10SM CLR 21/09 A3029 RMK AO2 SLP257 T02110089 $
                 =
2017-10-22 10:54 METAR KFZY 221454Z AUTO 16005KT 10SM CLR 19/09 A3030 RMK AO2 SLP260 T01890094
                 58007 $ =
2017-10-22 09:54 METAR KFZY 221354Z AUTO 13003KT 10SM CLR 16/09 A3031 RMK AO2 SLP264 T01610094 $
                 =
2017-10-22 08:54 METAR KFZY 221254Z AUTO VRB03KT 10SM CLR 13/09 A3032 RMK AO2 SLP268 T01330089 $
                 =
2017-10-22 07:54 METAR KFZY 221154Z AUTO VRB03KT 10SM CLR 11/08 A3032 RMK AO2 SLP268 T01060083
                 10122 20089 51006 $ =
2017-10-22 06:54 METAR KFZY 221054Z AUTO 00000KT 10SM CLR 11/09 A3031 RMK AO2 SLP267 T01060089 $
                 =
2017-10-22 05:54 METAR KFZY 220954Z AUTO 12003KT 10SM CLR 11/09 A3031 RMK AO2 SLP265 T01110089 $
                 =
2017-10-22 04:54 METAR KFZY 220854Z AUTO 13003KT 10SM CLR 10/08 A3030 RMK AO2 SLP260 T01000078
                 53004 $ =
2017-10-22 03:54 METAR KFZY 220754Z AUTO 13003KT 10SM CLR 11/08 A3028 RMK AO2 SLP255 T01110083 $
                 =
2017-10-22 02:54 METAR KFZY 220654Z AUTO 13005KT 10SM CLR 12/08 A3028 RMK AO2 SLP255 T01220083 $
                 =
2017-10-22 01:54 METAR KFZY 220554Z AUTO 13003KT 10SM CLR 10/08 A3029 RMK AO2 SLP255 T01000078
                 10144 20094 53002 $ =
2017-10-22 00:54 METAR KFZY 220454Z AUTO 12003KT 10SM CLR 11/08 A3028 RMK AO2 SLP253 T01060078
                 402330039 $ =
2017-10-21 23:54 METAR KFZY 220354Z AUTO 13005KT 10SM CLR 12/08 A3028 RMK AO2 SLP253 T01170083 $
                 =
2017-10-21 22:54 METAR KFZY 220254Z AUTO 13003KT 10SM CLR 10/08 A3028 RMK AO2 SLP255 T01000078
                 53002 $ =
2017-10-21 21:54 METAR KFZY 220154Z AUTO 12003KT 10SM CLR 11/08 A3028 RMK AO2 SLP254 T01060078 $
                 =
2017-10-21 20:54 METAR KFZY 220054Z AUTO 12004KT 10SM CLR 13/08 A3027 RMK AO2 SLP251 T01330078 $
                 =
2017-10-21 19:54 METAR KFZY 212354Z AUTO 13003KT 10SM CLR 13/09 A3028 RMK AO2 SLP255 T01330094
                 10233 20122 53005 $ =
2017-10-21 18:54 METAR KFZY 212254Z AUTO 11003KT 10SM CLR 14/10 A3027 RMK AO2 SLP254 T01390100 $
                 =
2017-10-21 17:54 METAR KFZY 212154Z AUTO 00000KT 10SM CLR 17/10 A3026 RMK AO2 SLP250 T01670100 $
                 =

Support USWX by starting your Amazon purchase here.